Terminal Aerodrome Forecast
Issued by NWS

Home | Current Version | Previous Version | Text Only | Print | Product List | Glossary On
Versions: 1 2 3 4 5 6 7 8 9 10 11 12 13 14 15 16 17 18
000
FTUS43 KGRB 272344
TAFMTW
TAF
KMTW 272344Z 2800/2824 03005KT 3SM -DZ BR OVC004
     FM280500 26003KT 2SM BR BKN003
      TEMPO 2810/2813 1/2SM FG VV002
     FM281400 29004KT P6SM SCT004 BKN020
     FM281700 24006KT P6SM SCT025=

USA.gov is the U.S. government's official web portal to all federal, state and local government web resources and services.